createdAt,value
2023-02-19T00:01:42.096Z,10.85
2023-02-19T00:06:01.752Z,10.71
2023-02-19T00:09:04.876Z,10.69
2023-02-19T00:12:28.291Z,10.71
2023-02-19T00:16:24.025Z,10.79
2023-02-19T00:20:31.011Z,10.75
2023-02-19T00:23:56.803Z,10.74
2023-02-19T00:27:02.907Z,10.64
2023-02-19T00:30:27.744Z,10.59
2023-02-19T00:33:40.372Z,10.59
2023-02-19T00:36:58.651Z,10.64
2023-02-19T00:40:42.062Z,10.64
2023-02-19T00:44:01.900Z,10.65
2023-02-19T00:47:25.060Z,10.59
2023-02-19T00:50:38.302Z,10.48
2023-02-19T00:54:15.689Z,10.42
2023-02-19T00:58:20.319Z,10.48
2023-02-19T01:01:33.202Z,10.49
2023-02-19T01:05:02.224Z,10.52
2023-02-19T01:08:26.269Z,10.62
2023-02-19T01:11:38.314Z,10.63
2023-02-19T01:15:03.613Z,10.51
2023-02-19T01:18:59.532Z,10.56
2023-02-19T01:22:10.689Z,10.50
2023-02-19T01:25:17.751Z,10.49
2023-02-19T01:29:03.477Z,10.55
2023-02-19T01:32:11.373Z,10.54
2023-02-19T01:35:49.108Z,10.50
2023-02-19T01:39:32.039Z,10.45
2023-02-19T01:42:58.841Z,10.30
2023-02-19T01:46:39.273Z,10.22
2023-02-19T01:50:12.566Z,10.19
2023-02-19T01:53:57.611Z,10.22
2023-02-19T01:57:28.931Z,10.19
2023-02-19T02:01:07.078Z,10.29
2023-02-19T02:04:14.880Z,10.40
2023-02-19T02:08:01.984Z,10.33
2023-02-19T02:12:13.700Z,10.41
2023-02-19T02:16:33.149Z,10.60
2023-02-19T02:20:36.149Z,10.68
2023-02-19T02:24:51.999Z,10.77
2023-02-19T02:28:52.541Z,10.66
2023-02-19T02:32:31.153Z,10.63
2023-02-19T02:36:27.269Z,10.51
2023-02-19T02:39:48.938Z,10.64
2023-02-19T02:43:09.078Z,10.60
2023-02-19T02:46:35.551Z,10.56
2023-02-19T02:50:28.448Z,10.54
2023-02-19T02:55:04.298Z,10.46
2023-02-19T02:58:31.605Z,10.43
2023-02-19T03:02:28.882Z,10.33
2023-02-19T03:06:03.350Z,10.31
2023-02-19T03:09:44.510Z,10.31
2023-02-19T03:13:19.823Z,10.25
2023-02-19T03:17:30.905Z,10.20
2023-02-19T03:20:53.947Z,10.22
2023-02-19T03:24:38.806Z,10.14
2023-02-19T03:28:13.934Z,10.12
2023-02-19T03:31:57.642Z,10.10
2023-02-19T03:35:56.149Z,9.94
2023-02-19T03:39:22.151Z,9.83
2023-02-19T03:43:02.259Z,9.73
2023-02-19T03:47:03.628Z,9.70
2023-02-19T03:50:51.403Z,9.56
2023-02-19T03:54:35.974Z,9.52
2023-02-19T03:58:29.649Z,9.45
2023-02-19T04:01:37.596Z,9.50
2023-02-19T04:04:50.664Z,9.54
2023-02-19T04:08:00.536Z,9.39
2023-02-19T04:11:06.850Z,9.41
2023-02-19T04:14:22.307Z,9.29
2023-02-19T04:17:34.378Z,9.46
2023-02-19T04:20:46.548Z,9.76
2023-02-19T04:23:50.440Z,9.76
2023-02-19T04:26:54.558Z,9.52
2023-02-19T04:29:57.905Z,9.51
2023-02-19T04:33:02.848Z,9.38
2023-02-19T04:36:07.733Z,9.43
2023-02-19T04:39:10.242Z,9.40
2023-02-19T04:42:16.494Z,9.23
2023-02-19T04:45:21.628Z,9.24
2023-02-19T04:48:26.978Z,9.14
2023-02-19T04:51:29.536Z,9.20
2023-02-19T04:54:34.756Z,9.20
2023-02-19T04:57:39.440Z,9.11
2023-02-19T05:00:44.815Z,9.13
2023-02-19T05:03:49.645Z,9.19
2023-02-19T05:06:55.377Z,9.25
2023-02-19T05:10:00.228Z,9.32
2023-02-19T05:13:03.506Z,9.33
2023-02-19T05:16:13.969Z,9.40
2023-02-19T05:19:20.721Z,9.39
2023-02-19T05:22:23.282Z,9.35
2023-02-19T05:25:28.890Z,9.44
2023-02-19T05:28:33.611Z,9.31
2023-02-19T05:31:43.064Z,9.19
2023-02-19T05:34:48.124Z,9.05
2023-02-19T05:37:53.569Z,8.86
2023-02-19T05:40:56.361Z,8.79
2023-02-19T05:44:02.067Z,8.64
2023-02-19T05:47:04.704Z,8.47
2023-02-19T05:50:10.858Z,8.36
2023-02-19T05:53:14.372Z,8.21
2023-02-19T05:56:26.254Z,8.14
2023-02-19T05:59:29.518Z,8.09
2023-02-19T06:02:34.645Z,8.10
2023-02-19T06:05:38.510Z,8.01
2023-02-19T06:08:43.591Z,8.04
2023-02-19T06:11:49.464Z,7.99
2023-02-19T06:14:52.347Z,7.91
2023-02-19T06:17:55.468Z,7.92
2023-02-19T06:21:02.907Z,7.77
2023-02-19T06:24:09.041Z,7.88
2023-02-19T06:27:11.740Z,7.73
2023-02-19T06:30:14.697Z,7.70
2023-02-19T06:33:17.246Z,7.57
2023-02-19T06:36:22.014Z,7.57
2023-02-19T06:39:25.708Z,7.43
2023-02-19T06:42:35.132Z,7.60
2023-02-19T06:45:37.989Z,7.67
2023-02-19T06:49:01.629Z,7.55
2023-02-19T06:52:04.330Z,7.51
2023-02-19T06:55:12.242Z,7.52
2023-02-19T06:58:14.886Z,7.55
2023-02-19T07:01:20.571Z,7.45
2023-02-19T07:04:24.593Z,7.57
2023-02-19T07:07:29.792Z,7.59
2023-02-19T07:10:34.602Z,7.69
2023-02-19T07:13:40.446Z,7.60
2023-02-19T07:16:47.739Z,7.81
2023-02-19T07:19:54.184Z,7.80
2023-02-19T07:22:59.706Z,7.85
2023-02-19T07:26:26.284Z,7.74
2023-02-19T07:29:31.186Z,7.80
2023-02-19T07:32:34.231Z,7.83
2023-02-19T07:35:36.755Z,7.92
2023-02-19T07:38:42.751Z,8.05
2023-02-19T07:41:45.304Z,8.04
2023-02-19T07:44:52.868Z,8.01
2023-02-19T07:47:57.764Z,8.11
2023-02-19T07:51:01.129Z,8.13
2023-02-19T07:54:05.982Z,8.22
2023-02-19T07:57:11.711Z,8.42
2023-02-19T08:00:14.558Z,8.35
2023-02-19T08:03:20.269Z,8.12
2023-02-19T08:06:23.239Z,8.13
2023-02-19T08:09:28.487Z,8.12
2023-02-19T08:12:58.651Z,8.14
2023-02-19T08:16:17.020Z,8.13
2023-02-19T08:19:23.312Z,8.09
2023-02-19T08:22:26.716Z,8.01
2023-02-19T08:25:30.031Z,8.03
2023-02-19T08:28:33.890Z,7.99
2023-02-19T08:31:37.446Z,7.92
2023-02-19T08:34:41.490Z,7.87
2023-02-19T08:37:48.059Z,7.82
2023-02-19T08:40:50.952Z,7.86
2023-02-19T08:43:53.916Z,7.91
2023-02-19T08:47:02.473Z,7.91
2023-02-19T08:50:08.778Z,7.98
2023-02-19T08:53:11.675Z,7.97
2023-02-19T08:56:16.615Z,7.98
2023-02-19T08:59:20.853Z,7.88
2023-02-19T09:02:24.723Z,7.83
2023-02-19T09:05:28.370Z,7.89
2023-02-19T09:08:33.593Z,7.99
2023-02-19T09:11:41.225Z,8.13
2023-02-19T09:14:45.032Z,8.04
2023-02-19T09:17:57.061Z,8.08
2023-02-19T09:21:01.812Z,8.05
2023-02-19T09:24:08.385Z,8.06
2023-02-19T09:27:19.813Z,8.00
2023-02-19T09:30:24.769Z,7.86
2023-02-19T09:33:27.822Z,7.93
2023-02-19T09:36:35.580Z,7.94
2023-02-19T09:39:38.986Z,7.96
2023-02-19T09:42:43.366Z,7.99
2023-02-19T09:45:51.659Z,7.94
2023-02-19T09:49:02.501Z,7.90
2023-02-19T09:52:15.523Z,7.97
2023-02-19T09:55:32.650Z,8.15
2023-02-19T09:58:49.737Z,8.15
2023-02-19T10:02:02.943Z,8.20
2023-02-19T10:05:19.460Z,8.22
2023-02-19T10:08:25.433Z,8.40
2023-02-19T10:11:33.706Z,8.57
2023-02-19T10:14:42.042Z,8.61
2023-02-19T10:17:45.102Z,8.68
2023-02-19T10:20:50.897Z,8.96
2023-02-19T10:24:03.293Z,8.80
2023-02-19T10:27:19.238Z,8.99
2023-02-19T10:30:25.705Z,9.39
2023-02-19T10:33:31.527Z,9.70
2023-02-19T10:36:41.151Z,10.13
2023-02-19T10:39:49.458Z,10.07
2023-02-19T10:42:56.789Z,10.48
2023-02-19T10:46:06.554Z,10.89
2023-02-19T10:49:30.974Z,10.74
2023-02-19T10:52:36.689Z,10.44
2023-02-19T10:55:41.461Z,10.57
2023-02-19T10:58:47.361Z,10.46
2023-02-19T11:02:18.609Z,10.48
2023-02-19T11:05:21.722Z,10.52
2023-02-19T11:08:25.229Z,10.85
2023-02-19T11:11:37.512Z,11.11
2023-02-19T11:14:46.103Z,11.48
2023-02-19T11:18:00.219Z,11.72
2023-02-19T11:21:07.518Z,12.52
2023-02-19T11:24:28.898Z,13.05
2023-02-19T11:27:35.684Z,13.43
2023-02-19T11:30:44.105Z,13.54
2023-02-19T11:34:02.610Z,13.95
2023-02-19T11:37:22.326Z,14.03
2023-02-19T11:40:40.114Z,14.09
2023-02-19T11:43:53.108Z,14.13
2023-02-19T11:46:56.033Z,14.06
2023-02-19T11:50:22.503Z,14.41
2023-02-19T11:53:33.738Z,14.33
2023-02-19T11:56:40.867Z,14.45
2023-02-19T11:59:56.524Z,14.08
2023-02-19T12:03:05.062Z,13.90
2023-02-19T12:06:30.037Z,14.07
2023-02-19T12:10:24.035Z,14.18
2023-02-19T12:14:22.391Z,14.09
2023-02-19T12:18:08.294Z,14.18
2023-02-19T12:22:25.579Z,14.25
2023-02-19T12:26:22.144Z,14.17
2023-02-19T12:29:35.784Z,14.20
2023-02-19T12:33:14.168Z,14.11
2023-02-19T12:37:21.117Z,14.18
2023-02-19T12:41:22.814Z,14.32
2023-02-19T12:45:16.215Z,14.19
2023-02-19T12:49:01.263Z,14.19
2023-02-19T12:52:40.508Z,14.40
2023-02-19T12:56:47.153Z,14.52
2023-02-19T13:00:31.197Z,14.71
2023-02-19T13:04:11.774Z,14.78
2023-02-19T13:07:40.926Z,14.96
2023-02-19T13:11:42.600Z,14.78
2023-02-19T13:15:52.034Z,15.16
2023-02-19T13:20:27.741Z,15.35
2023-02-19T13:24:36.028Z,15.32
2023-02-19T13:28:21.445Z,15.59
2023-02-19T13:31:57.514Z,15.58
2023-02-19T13:35:28.591Z,15.38
2023-02-19T13:42:41.334Z,15.62
2023-02-19T13:46:13.770Z,15.09
2023-02-19T13:50:06.659Z,15.68
2023-02-19T13:54:03.250Z,15.51
2023-02-19T13:57:47.126Z,14.77
2023-02-19T14:01:49.960Z,13.56
2023-02-19T14:05:51.641Z,12.54
2023-02-19T14:09:36.144Z,12.36
2023-02-19T14:12:56.569Z,12.24
2023-02-19T14:16:43.025Z,11.41
2023-02-19T14:21:17.900Z,9.80
2023-02-19T14:24:54.853Z,9.16
2023-02-19T14:28:46.129Z,9.02
2023-02-19T14:32:31.769Z,8.88
2023-02-19T14:36:34.047Z,8.76
2023-02-19T14:40:28.041Z,8.69
2023-02-19T14:44:20.621Z,8.82
2023-02-19T14:47:45.892Z,8.98
2023-02-19T14:51:14.718Z,9.07
2023-02-19T14:59:20.045Z,9.30
2023-02-19T15:03:33.988Z,9.47
2023-02-19T15:07:27.884Z,9.47
2023-02-19T15:15:17.721Z,9.35
2023-02-19T15:19:10.393Z,9.19
2023-02-19T15:22:33.642Z,9.08
2023-02-19T15:26:22.781Z,9.01
2023-02-19T15:29:53.892Z,8.97
2023-02-19T15:33:59.317Z,8.95
2023-02-19T15:37:41.276Z,8.84
2023-02-19T15:41:25.156Z,8.81
2023-02-19T15:45:07.722Z,8.71
2023-02-19T15:49:09.542Z,8.61
2023-02-19T15:57:17.202Z,8.51
2023-02-19T16:01:01.982Z,8.69
2023-02-19T16:05:12.492Z,8.66
2023-02-19T16:08:41.200Z,8.57
2023-02-19T16:12:24.996Z,8.69
2023-02-19T16:16:18.848Z,8.59
2023-02-19T16:19:43.352Z,8.58
2023-02-19T16:23:30.794Z,8.93
2023-02-19T16:26:56.211Z,8.86
2023-02-19T16:30:26.834Z,9.13
2023-02-19T16:34:18.710Z,9.04
2023-02-19T16:38:00.274Z,8.93
2023-02-19T16:41:15.011Z,8.90
2023-02-19T16:44:27.929Z,9.09
2023-02-19T16:47:41.671Z,8.95
2023-02-19T16:51:26.184Z,8.96
2023-02-19T16:54:59.879Z,8.90
2023-02-19T16:58:20.410Z,8.65
2023-02-19T17:02:15.129Z,8.47
2023-02-19T17:05:40.993Z,8.23
2023-02-19T17:09:16.548Z,8.10
2023-02-19T17:13:07.177Z,8.06
2023-02-19T17:16:39.929Z,7.95
2023-02-19T17:19:46.982Z,8.03
2023-02-19T17:23:13.204Z,8.14
2023-02-19T17:26:56.134Z,7.98
2023-02-19T17:30:39.844Z,7.95
2023-02-19T17:34:07.794Z,7.88
2023-02-19T17:37:47.605Z,7.93
2023-02-19T17:41:51.532Z,7.84
2023-02-19T17:45:34.707Z,7.76
2023-02-19T17:49:42.210Z,7.79
2023-02-19T17:53:20.329Z,7.81
2023-02-19T17:57:02.409Z,7.79
2023-02-19T18:00:32.576Z,7.86
2023-02-19T18:04:16.717Z,7.79
2023-02-19T18:07:40.592Z,7.84
2023-02-19T18:11:49.818Z,7.92
2023-02-19T18:15:32.971Z,7.89
2023-02-19T18:19:19.288Z,7.95
2023-02-19T18:23:03.928Z,7.86
2023-02-19T18:26:34.877Z,7.80
2023-02-19T18:30:23.094Z,7.67
2023-02-19T18:34:07.256Z,7.39
2023-02-19T18:37:40.644Z,7.38
2023-02-19T18:41:19.956Z,7.43
2023-02-19T18:44:41.863Z,7.39
2023-02-19T18:48:06.854Z,7.28
2023-02-19T18:52:01.446Z,7.41
2023-02-19T18:55:24.121Z,7.33
2023-02-19T18:58:50.514Z,7.37
2023-02-19T19:02:27.137Z,7.30
2023-02-19T19:05:39.676Z,7.22
2023-02-19T19:09:22.611Z,7.14
2023-02-19T19:12:50.526Z,7.14
2023-02-19T19:16:33.325Z,7.26
2023-02-19T19:20:13.895Z,7.43
2023-02-19T19:23:47.104Z,7.52
2023-02-19T19:27:21.564Z,7.52
2023-02-19T19:31:17.156Z,7.42
2023-02-19T19:35:02.708Z,7.59
2023-02-19T19:38:41.696Z,7.57
2023-02-19T19:42:26.058Z,7.45
2023-02-19T19:45:57.988Z,7.41
2023-02-19T19:49:41.288Z,7.29
2023-02-19T19:53:05.448Z,7.15
2023-02-19T19:56:28.261Z,7.08
2023-02-19T19:59:53.538Z,7.08
2023-02-19T20:03:53.625Z,7.05
2023-02-19T20:12:02.113Z,6.99
2023-02-19T20:15:33.210Z,6.89
2023-02-19T20:19:36.221Z,6.81
2023-02-19T20:22:59.579Z,6.91
2023-02-19T20:26:26.040Z,6.87
2023-02-19T20:30:04.238Z,6.94
2023-02-19T20:33:27.808Z,6.90
2023-02-19T20:36:55.039Z,6.92
2023-02-19T20:40:19.586Z,6.96
2023-02-19T20:43:28.654Z,6.86
2023-02-19T20:47:01.033Z,6.84
2023-02-19T20:50:25.735Z,6.90
2023-02-19T20:53:53.689Z,6.79
2023-02-19T20:57:18.204Z,6.79
2023-02-19T21:00:42.184Z,6.71
2023-02-19T21:04:14.190Z,6.75
2023-02-19T21:08:17.661Z,6.67
2023-02-19T21:12:00.459Z,6.61
2023-02-19T21:15:26.459Z,6.49
2023-02-19T21:18:53.841Z,6.51
2023-02-19T21:21:59.866Z,6.40
2023-02-19T21:25:07.740Z,6.32
2023-02-19T21:28:52.058Z,6.21
2023-02-19T21:32:17.169Z,5.99
2023-02-19T21:36:21.182Z,5.92
2023-02-19T21:39:28.620Z,5.71
2023-02-19T21:42:53.023Z,5.62
2023-02-19T21:46:00.540Z,5.54
2023-02-19T21:49:44.681Z,5.47
2023-02-19T21:52:53.848Z,5.41
2023-02-19T21:56:22.839Z,5.25
2023-02-19T21:59:54.492Z,5.22
2023-02-19T22:03:27.332Z,5.12
2023-02-19T22:06:35.400Z,5.02
2023-02-19T22:10:05.880Z,5.03
2023-02-19T22:13:57.807Z,4.99
2023-02-19T22:17:04.741Z,4.94
2023-02-19T22:20:08.469Z,4.84
2023-02-19T22:23:13.375Z,4.85
2023-02-19T22:26:23.161Z,4.85
2023-02-19T22:29:27.887Z,4.69
2023-02-19T22:32:51.639Z,4.69
2023-02-19T22:35:54.372Z,4.62
2023-02-19T22:39:01.810Z,4.56
2023-02-19T22:42:07.249Z,4.50
2023-02-19T22:45:13.836Z,4.47
2023-02-19T22:48:30.200Z,4.41
2023-02-19T22:52:14.746Z,4.31
2023-02-19T22:55:57.916Z,4.27
2023-02-19T22:59:04.554Z,4.32
2023-02-19T23:02:27.136Z,4.29
2023-02-19T23:05:34.856Z,4.24
2023-02-19T23:08:37.834Z,4.25
2023-02-19T23:12:10.597Z,4.24
2023-02-19T23:15:35.661Z,4.24
2023-02-19T23:18:39.170Z,4.13
2023-02-19T23:21:44.480Z,4.05
2023-02-19T23:24:52.696Z,4.09
2023-02-19T23:27:58.577Z,4.15
2023-02-19T23:31:07.014Z,4.19
2023-02-19T23:34:12.757Z,4.21
2023-02-19T23:37:17.953Z,4.21
2023-02-19T23:40:21.246Z,4.17
2023-02-19T23:43:25.426Z,4.18
2023-02-19T23:46:34.664Z,4.15
2023-02-19T23:49:41.130Z,4.09
2023-02-19T23:52:47.324Z,4.10
2023-02-19T23:55:52.163Z,4.04
2023-02-19T23:58:57.790Z,4.02
